ENSE

Snorre A Oilp

Snorre A Oilp, Norway
METAR ENSE 152150Z AUTO 25018KT 9999NDV FEW025/// SCT033/// BKN056/// 13/12 Q1000 W///S3
Observed Flight Rules
Aug-15 @ 21:50 UTC (37 minutes ago)
Wind Clouds
250° at 18 knots
  • Few at 2,500' AGL
  • Scattered at 3,300' AGL
  • Broken at 5,600' AGL
Temperatures Readings
Current 13°C / 55°F
Dewpoint 12°C / 54°F
Humidity 94%
Altimeter 29.53" Hg
Pressure 1000 hPa
Elevation 10
METAR ENSE 152150Z AUTO 25018KT 9999NDV FEW025/// SCT033/// BKN056/// 13/12 Q1000 W///S3
Observed Flight Rules
Aug-15 @ 21:50 UTC
(37 minutes ago)
Wind
250° at 18 knots
Clouds
  • Few at 2,500' AGL
  • Scattered at 3,300' AGL
  • Broken at 5,600' AGL
Temperature Dewpoint
13°C / 55°F 12°C / 54°F
Humidity Altimeter Pressure
94% 29.53" Hg 1000 hPa